createdAt,value
2023-08-26T00:00:41.173Z,4.22
2023-08-26T00:03:09.258Z,3.85
2023-08-26T00:05:37.496Z,4.30
2023-08-26T00:08:06.230Z,4.80
2023-08-26T00:10:35.658Z,4.38
2023-08-26T00:13:03.716Z,4.45
2023-08-26T00:15:31.919Z,4.22
2023-08-26T00:18:00.576Z,3.83
2023-08-26T00:20:29.879Z,4.20
2023-08-26T00:22:57.960Z,4.03
2023-08-26T00:25:26.086Z,3.70
2023-08-26T00:27:55.859Z,3.83
2023-08-26T00:30:24.138Z,4.18
2023-08-26T00:32:52.348Z,3.97
2023-08-26T00:35:20.645Z,3.50
2023-08-26T00:37:49.782Z,3.55
2023-08-26T00:40:17.939Z,3.90
2023-08-26T00:42:46.057Z,3.67
2023-08-26T00:45:15.731Z,3.95
2023-08-26T00:47:43.801Z,4.05
2023-08-26T00:50:12.429Z,3.63
2023-08-26T00:52:41.151Z,3.85
2023-08-26T00:55:11.843Z,3.60
2023-08-26T00:57:41.157Z,4.20
2023-08-26T01:00:10.618Z,4.00
2023-08-26T01:02:40.125Z,4.45
2023-08-26T01:05:08.986Z,3.75
2023-08-26T01:07:37.850Z,4.03
2023-08-26T01:10:07.036Z,4.45
2023-08-26T01:12:42.659Z,3.85
2023-08-26T01:15:14.373Z,3.83
2023-08-26T01:17:44.104Z,3.83
2023-08-26T01:20:14.079Z,4.10
2023-08-26T01:22:44.382Z,3.97
2023-08-26T01:25:13.958Z,3.92
2023-08-26T01:27:42.037Z,3.78
2023-08-26T01:30:12.637Z,4.32
2023-08-26T01:32:45.224Z,3.55
2023-08-26T01:35:17.936Z,4.43
2023-08-26T01:37:47.312Z,4.60
2023-08-26T01:40:19.108Z,4.50
2023-08-26T01:42:48.204Z,5.40
2023-08-26T01:45:16.464Z,5.25
2023-08-26T01:47:44.588Z,5.93
2023-08-26T01:50:12.606Z,7.03
2023-08-26T01:52:41.910Z,7.90
2023-08-26T01:55:10.419Z,6.55
2023-08-26T01:57:39.896Z,7.32
2023-08-26T02:00:09.430Z,7.30
2023-08-26T02:02:37.453Z,7.47
2023-08-26T02:05:06.131Z,7.13
2023-08-26T02:07:34.153Z,7.28
2023-08-26T02:10:02.244Z,6.80
2023-08-26T02:12:30.404Z,7.38
2023-08-26T02:14:59.832Z,6.45
2023-08-26T02:17:27.847Z,6.35
2023-08-26T02:19:55.913Z,6.55
2023-08-26T02:22:24.020Z,6.25
2023-08-26T02:24:52.541Z,6.88
2023-08-26T02:27:20.652Z,7.22
2023-08-26T02:29:48.738Z,6.03
2023-08-26T02:32:18.184Z,6.45
2023-08-26T02:34:46.390Z,6.50
2023-08-26T02:37:14.486Z,5.53
2023-08-26T02:39:42.551Z,5.60
2023-08-26T02:42:10.644Z,5.90
2023-08-26T02:44:38.712Z,5.43
2023-08-26T02:47:07.044Z,6.30
2023-08-26T02:49:36.462Z,5.28
2023-08-26T02:52:04.491Z,5.25
2023-08-26T02:54:32.484Z,6.15
2023-08-26T02:57:01.795Z,6.50
2023-08-26T02:59:30.834Z,5.93
2023-08-26T03:02:03.493Z,5.78
2023-08-26T03:04:31.710Z,5.80
2023-08-26T03:07:01.350Z,6.32
2023-08-26T03:09:30.345Z,6.15
2023-08-26T03:11:58.579Z,5.70
2023-08-26T03:14:26.789Z,6.43
2023-08-26T03:16:54.833Z,6.18
2023-08-26T03:19:23.825Z,6.05
2023-08-26T03:21:51.908Z,6.38
2023-08-26T03:24:21.344Z,7.13
2023-08-26T03:26:49.521Z,7.22
2023-08-26T03:29:17.532Z,7.10
2023-08-26T03:31:45.654Z,7.15
2023-08-26T03:34:13.757Z,6.43
2023-08-26T03:36:41.849Z,7.70
2023-08-26T03:39:10.215Z,8.07
2023-08-26T03:41:39.620Z,7.60
2023-08-26T03:44:07.875Z,7.18
2023-08-26T03:46:35.961Z,7.47
2023-08-26T03:49:04.421Z,8.50
2023-08-26T03:51:32.620Z,7.97
2023-08-26T03:54:00.661Z,7.82
2023-08-26T03:56:29.392Z,8.32
2023-08-26T03:58:59.663Z,8.10
2023-08-26T04:01:28.336Z,7.63
2023-08-26T04:03:56.545Z,8.27
2023-08-26T04:06:24.799Z,8.30
2023-08-26T04:08:52.856Z,7.90
2023-08-26T04:11:20.936Z,8.48
2023-08-26T04:13:48.992Z,9.00
2023-08-26T04:16:20.716Z,9.35
2023-08-26T04:18:49.070Z,8.40
2023-08-26T04:21:17.569Z,7.85
2023-08-26T04:23:46.404Z,8.15
2023-08-26T04:26:14.564Z,7.60
2023-08-26T04:28:42.642Z,8.95
2023-08-26T04:31:10.695Z,8.82
2023-08-26T04:33:40.166Z,8.77
2023-08-26T04:36:08.356Z,8.55
2023-08-26T04:38:36.429Z,7.80
2023-08-26T04:41:04.648Z,7.32
2023-08-26T04:43:32.646Z,7.10
2023-08-26T04:46:00.829Z,7.80
2023-08-26T04:48:30.592Z,6.72
2023-08-26T04:51:00.048Z,8.07
2023-08-26T04:53:28.118Z,7.53
2023-08-26T04:55:56.179Z,7.07
2023-08-26T04:58:24.331Z,7.30
2023-08-26T05:00:53.827Z,7.38
2023-08-26T05:03:22.022Z,7.22
2023-08-26T05:05:50.051Z,7.50
2023-08-26T05:08:19.385Z,6.70
2023-08-26T05:10:47.466Z,7.50
2023-08-26T05:13:15.556Z,8.15
2023-08-26T05:15:43.620Z,8.02
2023-08-26T05:18:12.039Z,8.07
2023-08-26T05:20:44.342Z,6.65
2023-08-26T05:25:41.796Z,7.28
2023-08-26T05:28:09.839Z,7.97
2023-08-26T05:30:38.075Z,7.50
2023-08-26T05:33:07.449Z,7.60
2023-08-26T05:35:35.707Z,8.38
2023-08-26T05:38:03.947Z,8.88
2023-08-26T05:40:32.050Z,7.80
2023-08-26T05:43:01.571Z,8.32
2023-08-26T05:45:29.927Z,9.68
2023-08-26T05:47:58.263Z,8.27
2023-08-26T05:50:26.601Z,8.23
2023-08-26T05:52:54.691Z,8.52
2023-08-26T05:55:22.859Z,8.10
2023-08-26T05:57:50.896Z,8.23
2023-08-26T06:00:20.496Z,7.72
2023-08-26T06:02:48.564Z,7.60
2023-08-26T06:05:16.781Z,7.60
2023-08-26T06:07:44.791Z,7.60
2023-08-26T06:10:14.401Z,7.45
2023-08-26T06:12:42.542Z,7.40
2023-08-26T06:15:11.068Z,6.70
2023-08-26T06:17:42.527Z,6.95
2023-08-26T06:20:13.428Z,5.38
2023-08-26T06:22:43.477Z,5.85
2023-08-26T06:25:11.542Z,6.38
2023-08-26T06:27:39.746Z,5.70
2023-08-26T06:30:10.073Z,6.70
2023-08-26T06:32:38.186Z,5.68
2023-08-26T06:35:08.464Z,5.20
2023-08-26T06:37:37.110Z,5.10
2023-08-26T06:40:06.281Z,4.72
2023-08-26T06:42:34.298Z,3.92
2023-08-26T06:45:02.497Z,4.05
2023-08-26T06:47:30.601Z,4.60
2023-08-26T06:49:58.731Z,4.18
2023-08-26T06:52:28.817Z,3.83
2023-08-26T06:54:56.908Z,3.47
2023-08-26T06:57:24.994Z,3.38
2023-08-26T06:59:53.030Z,3.25
2023-08-26T07:02:21.187Z,3.05
2023-08-26T07:04:49.379Z,3.50
2023-08-26T07:07:17.470Z,3.15
2023-08-26T07:09:46.844Z,3.20
2023-08-26T07:12:15.565Z,2.70
2023-08-26T07:14:43.703Z,3.10
2023-08-26T07:17:11.717Z,3.17
2023-08-26T07:19:39.809Z,3.42
2023-08-26T07:22:07.841Z,2.63
2023-08-26T07:24:35.858Z,3.05
2023-08-26T07:27:05.580Z,3.20
2023-08-26T07:29:35.854Z,3.30
2023-08-26T07:32:04.088Z,3.22
2023-08-26T07:34:32.341Z,3.03
2023-08-26T07:37:00.565Z,2.80
2023-08-26T07:39:28.695Z,3.10
2023-08-26T07:41:56.811Z,3.08
2023-08-26T07:44:26.229Z,2.80
2023-08-26T07:46:56.267Z,2.97
2023-08-26T07:49:24.729Z,2.05
2023-08-26T07:51:52.876Z,2.33
2023-08-26T07:54:20.977Z,2.13
2023-08-26T07:56:48.993Z,2.35
2023-08-26T07:59:17.128Z,2.25
2023-08-26T08:01:46.648Z,2.20
2023-08-26T08:04:14.673Z,1.80
2023-08-26T08:06:42.723Z,1.80
2023-08-26T08:09:11.589Z,1.98
2023-08-26T08:11:39.657Z,2.03
2023-08-26T08:14:07.642Z,1.95
2023-08-26T08:16:35.665Z,2.05
2023-08-26T08:19:05.065Z,1.23
2023-08-26T08:21:33.090Z,1.23
2023-08-26T08:24:01.798Z,1.50
2023-08-26T08:26:33.620Z,1.52
2023-08-26T08:29:02.301Z,1.58
2023-08-26T08:31:30.430Z,1.35
2023-08-26T08:33:58.518Z,1.50
2023-08-26T08:36:27.915Z,1.60
2023-08-26T08:38:56.134Z,1.50
2023-08-26T08:41:24.326Z,1.60
2023-08-26T08:43:55.522Z,1.42
2023-08-26T08:46:24.421Z,2.00
2023-08-26T08:48:52.732Z,1.75
2023-08-26T08:51:22.886Z,1.50
2023-08-26T08:53:54.010Z,1.65
2023-08-26T08:56:24.006Z,1.98
2023-08-26T08:58:53.479Z,1.98
2023-08-26T09:01:24.488Z,1.80
2023-08-26T09:03:52.429Z,1.63
2023-08-26T09:06:20.669Z,1.77
2023-08-26T09:08:49.815Z,1.60
2023-08-26T09:11:19.229Z,1.60
2023-08-26T09:13:47.320Z,2.03
2023-08-26T09:16:15.348Z,1.63
2023-08-26T09:18:43.465Z,1.80
2023-08-26T09:21:14.582Z,1.75
2023-08-26T09:23:44.124Z,1.23
2023-08-26T09:26:12.689Z,1.30
2023-08-26T09:28:51.653Z,1.75
2023-08-26T09:31:20.544Z,1.70
2023-08-26T09:33:52.004Z,1.77
2023-08-26T09:38:51.653Z,1.90
2023-08-26T09:41:22.757Z,2.00
2023-08-26T09:43:52.658Z,1.90
2023-08-26T09:46:22.248Z,1.88
2023-08-26T09:48:50.919Z,2.20
2023-08-26T09:51:30.568Z,2.10
2023-08-26T09:53:59.099Z,2.03
2023-08-26T09:56:28.595Z,1.90
2023-08-26T09:58:58.810Z,2.28
2023-08-26T10:01:27.476Z,3.72
2023-08-26T10:04:06.028Z,2.75
2023-08-26T10:06:38.465Z,2.90
2023-08-26T10:09:11.240Z,2.53
2023-08-26T10:11:42.207Z,2.35
2023-08-26T10:14:15.381Z,2.45
2023-08-26T10:16:45.489Z,2.70
2023-08-26T10:19:15.559Z,2.20
2023-08-26T10:21:44.010Z,2.30
2023-08-26T10:24:12.015Z,1.90
2023-08-26T10:26:40.312Z,2.17
2023-08-26T10:29:09.496Z,1.95
2023-08-26T10:31:40.347Z,1.65
2023-08-26T10:34:16.191Z,1.85
2023-08-26T10:36:48.539Z,2.13
2023-08-26T10:39:17.834Z,1.80
2023-08-26T10:42:15.382Z,1.50
2023-08-26T10:44:45.056Z,1.50
2023-08-26T10:47:14.427Z,1.48
2023-08-26T10:49:42.579Z,1.80
2023-08-26T10:52:17.052Z,1.10
2023-08-26T10:54:45.891Z,1.40
2023-08-26T10:57:14.337Z,1.08
2023-08-26T10:59:43.843Z,1.40
2023-08-26T11:02:14.128Z,1.27
2023-08-26T11:04:45.895Z,1.00
2023-08-26T11:07:17.840Z,1.40
2023-08-26T11:09:46.263Z,1.30
2023-08-26T11:12:27.659Z,1.50
2023-08-26T11:14:56.209Z,1.15
2023-08-26T11:17:27.381Z,1.20
2023-08-26T11:19:56.381Z,1.15
2023-08-26T11:22:27.053Z,1.15
2023-08-26T11:24:55.307Z,1.40
2023-08-26T11:27:23.416Z,1.05
2023-08-26T11:29:51.502Z,1.25
2023-08-26T11:32:19.668Z,1.20
2023-08-26T11:34:49.149Z,1.20
2023-08-26T11:37:20.559Z,1.40
2023-08-26T11:39:48.615Z,1.20
2023-08-26T11:42:17.078Z,1.10
2023-08-26T11:44:47.965Z,1.17
2023-08-26T11:47:16.147Z,1.23
2023-08-26T11:49:45.930Z,1.02
2023-08-26T11:52:15.322Z,1.20
2023-08-26T11:54:43.428Z,1.50
2023-08-26T11:57:11.744Z,1.00
2023-08-26T11:59:40.710Z,1.30
2023-08-26T12:02:32.818Z,1.30
2023-08-26T12:05:01.101Z,1.20
2023-08-26T12:07:31.514Z,1.20
2023-08-26T12:10:00.555Z,1.30
2023-08-26T12:12:28.716Z,0.98
2023-08-26T12:15:07.953Z,1.05
2023-08-26T12:17:44.475Z,1.00
2023-08-26T12:20:22.960Z,0.80
2023-08-26T12:22:53.097Z,1.10
2023-08-26T12:25:25.465Z,0.80
2023-08-26T12:27:53.742Z,1.00
2023-08-26T12:30:21.798Z,1.00
2023-08-26T12:32:49.981Z,0.98
2023-08-26T12:35:18.209Z,1.00
2023-08-26T12:37:46.272Z,0.90
2023-08-26T12:40:15.860Z,0.90
2023-08-26T12:42:43.947Z,1.10
2023-08-26T12:45:12.716Z,1.02
2023-08-26T12:47:43.058Z,1.15
2023-08-26T12:50:12.239Z,1.10
2023-08-26T12:52:40.290Z,1.00
2023-08-26T12:55:08.993Z,1.00
2023-08-26T12:57:38.493Z,1.08
2023-08-26T13:00:07.859Z,1.42
2023-08-26T13:02:37.873Z,1.23
2023-08-26T13:05:06.479Z,1.00
2023-08-26T13:07:34.543Z,1.00
2023-08-26T13:10:04.717Z,1.10
2023-08-26T13:12:33.560Z,1.00
2023-08-26T13:15:03.056Z,1.10
2023-08-26T13:17:31.215Z,1.20
2023-08-26T13:20:00.086Z,1.05
2023-08-26T13:22:29.114Z,1.15
2023-08-26T13:24:58.576Z,0.88
2023-08-26T13:27:26.713Z,1.08
2023-08-26T13:29:54.791Z,1.08
2023-08-26T13:32:24.280Z,1.15
2023-08-26T13:34:52.426Z,1.45
2023-08-26T13:37:20.694Z,1.23
2023-08-26T13:39:48.752Z,0.90
2023-08-26T13:42:17.101Z,1.10
2023-08-26T13:44:45.179Z,1.20
2023-08-26T13:47:13.238Z,0.90
2023-08-26T13:49:42.600Z,1.23
2023-08-26T13:52:10.647Z,1.20
2023-08-26T13:54:38.672Z,0.93
2023-08-26T13:57:07.250Z,1.10
2023-08-26T13:59:35.332Z,1.10
2023-08-26T14:02:03.517Z,1.25
2023-08-26T14:04:31.516Z,1.30
2023-08-26T14:07:00.947Z,1.20
2023-08-26T14:09:29.009Z,1.30
2023-08-26T14:12:00.177Z,1.20
2023-08-26T14:14:28.248Z,1.40
2023-08-26T14:16:56.338Z,1.23
2023-08-26T14:19:24.597Z,1.40
2023-08-26T14:21:52.679Z,1.10
2023-08-26T14:24:21.961Z,1.60
2023-08-26T14:26:50.022Z,1.50
2023-08-26T14:29:18.086Z,1.25
2023-08-26T14:31:46.207Z,1.65
2023-08-26T14:34:14.484Z,2.20
2023-08-26T14:36:42.518Z,1.30
2023-08-26T14:39:11.421Z,1.60
2023-08-26T14:41:40.784Z,1.25
2023-08-26T14:44:08.855Z,1.30
2023-08-26T14:46:37.056Z,1.35
2023-08-26T14:49:05.764Z,1.27
2023-08-26T14:51:33.844Z,1.50
2023-08-26T14:54:01.959Z,1.48
2023-08-26T14:56:30.019Z,1.70
2023-08-26T14:59:00.201Z,1.60
2023-08-26T15:01:28.407Z,1.33
2023-08-26T15:03:56.599Z,1.45
2023-08-26T15:06:24.852Z,1.58
2023-08-26T15:08:52.961Z,1.70
2023-08-26T15:11:21.002Z,1.77
2023-08-26T15:13:49.232Z,1.60
2023-08-26T15:16:18.738Z,1.75
2023-08-26T15:18:46.854Z,1.50
2023-08-26T15:21:14.949Z,1.80
2023-08-26T15:23:43.058Z,1.70
2023-08-26T15:26:11.174Z,1.60
2023-08-26T15:28:39.266Z,1.83
2023-08-26T15:31:07.270Z,2.40
2023-08-26T15:33:36.669Z,2.22
2023-08-26T15:36:05.384Z,1.85
2023-08-26T15:38:33.391Z,1.80
2023-08-26T15:41:04.505Z,1.92
2023-08-26T15:43:35.938Z,2.00
2023-08-26T15:46:04.246Z,3.03
2023-08-26T15:48:32.304Z,2.72
2023-08-26T15:51:01.606Z,3.03
2023-08-26T15:53:29.920Z,3.78
2023-08-26T15:55:59.409Z,3.05
2023-08-26T15:58:27.597Z,2.60
2023-08-26T16:00:56.310Z,2.28
2023-08-26T16:03:24.550Z,2.65
2023-08-26T16:05:53.559Z,2.63
2023-08-26T16:08:23.046Z,2.35
2023-08-26T16:10:51.187Z,2.38
2023-08-26T16:13:19.304Z,2.25
2023-08-26T16:15:47.793Z,2.15
2023-08-26T16:18:16.229Z,1.60
2023-08-26T16:20:44.338Z,1.70
2023-08-26T16:23:13.577Z,1.88
2023-08-26T16:25:42.951Z,1.63
2023-08-26T16:28:10.980Z,1.73
2023-08-26T16:30:38.999Z,1.92
2023-08-26T16:33:07.193Z,1.88
2023-08-26T16:35:35.316Z,2.10
2023-08-26T16:38:03.418Z,2.53
2023-08-26T16:40:32.992Z,2.30
2023-08-26T16:43:02.479Z,1.77
2023-08-26T16:45:31.514Z,2.00
2023-08-26T16:47:59.823Z,2.10
2023-08-26T16:50:27.954Z,2.22
2023-08-26T16:52:56.409Z,2.20
2023-08-26T16:55:25.983Z,2.55
2023-08-26T16:57:54.111Z,2.38
2023-08-26T17:00:23.750Z,1.92
2023-08-26T17:02:51.917Z,2.10
2023-08-26T17:05:20.150Z,1.90
2023-08-26T17:07:48.177Z,2.10
2023-08-26T17:10:16.360Z,1.90
2023-08-26T17:12:44.446Z,1.95
2023-08-26T17:15:12.871Z,2.30
2023-08-26T17:17:42.294Z,2.00
2023-08-26T17:20:11.286Z,2.10
2023-08-26T17:22:39.360Z,1.88
2023-08-26T17:25:08.649Z,1.77
2023-08-26T17:27:38.009Z,1.98
2023-08-26T17:30:07.935Z,2.03
2023-08-26T17:32:35.981Z,2.10
2023-08-26T17:35:06.205Z,1.80
2023-08-26T17:37:34.316Z,1.70
2023-08-26T17:40:02.584Z,1.67
2023-08-26T17:42:30.607Z,1.73
2023-08-26T17:44:58.681Z,2.00
2023-08-26T17:47:26.772Z,2.20
2023-08-26T17:49:54.870Z,2.10
2023-08-26T17:52:24.921Z,1.90
2023-08-26T17:54:54.445Z,2.08
2023-08-26T17:57:25.233Z,1.80
2023-08-26T17:59:53.860Z,1.70
2023-08-26T18:02:22.112Z,2.22
2023-08-26T18:04:50.094Z,2.05
2023-08-26T18:07:19.641Z,2.22
2023-08-26T18:09:49.860Z,2.00
2023-08-26T18:12:18.050Z,2.00
2023-08-26T18:14:46.058Z,1.83
2023-08-26T18:17:14.100Z,2.10
2023-08-26T18:19:42.212Z,2.08
2023-08-26T18:22:10.265Z,1.80
2023-08-26T18:24:38.411Z,2.30
2023-08-26T18:27:08.034Z,2.38
2023-08-26T18:29:40.234Z,2.30
2023-08-26T18:34:37.201Z,2.00
2023-08-26T18:37:05.744Z,2.17
2023-08-26T18:39:34.061Z,2.20
2023-08-26T18:42:03.931Z,2.40
2023-08-26T18:44:34.129Z,2.30
2023-08-26T18:47:02.255Z,2.15
2023-08-26T18:49:30.933Z,2.50
2023-08-26T18:51:59.129Z,2.35
2023-08-26T18:54:27.189Z,2.70
2023-08-26T18:56:55.248Z,2.30
2023-08-26T18:59:23.281Z,2.83
2023-08-26T19:01:53.038Z,2.80
2023-08-26T19:04:21.166Z,2.85
2023-08-26T19:06:49.737Z,3.22
2023-08-26T19:09:17.858Z,2.58
2023-08-26T19:11:46.032Z,2.95
2023-08-26T19:14:14.103Z,2.97
2023-08-26T19:16:42.248Z,2.88
2023-08-26T19:19:11.750Z,2.78
2023-08-26T19:21:40.768Z,2.40
2023-08-26T19:24:09.357Z,3.00
2023-08-26T19:26:37.466Z,2.30
2023-08-26T19:29:05.693Z,2.50
2023-08-26T19:31:34.034Z,2.55
2023-08-26T19:34:02.159Z,2.65
2023-08-26T19:36:31.631Z,2.80
2023-08-26T19:38:59.757Z,2.75
2023-08-26T19:41:27.857Z,2.72
2023-08-26T19:43:56.146Z,2.67
2023-08-26T19:46:24.336Z,2.97
2023-08-26T19:48:56.635Z,2.83
2023-08-26T19:51:25.165Z,2.97
2023-08-26T19:53:55.301Z,3.15
2023-08-26T19:56:23.363Z,2.95
2023-08-26T19:58:51.341Z,2.88
2023-08-26T20:01:20.543Z,2.80
2023-08-26T20:03:50.516Z,3.20
2023-08-26T20:06:18.821Z,3.05
2023-08-26T20:08:46.978Z,2.60
2023-08-26T20:11:16.379Z,2.80
2023-08-26T20:13:45.187Z,2.83
2023-08-26T20:16:13.281Z,2.67
2023-08-26T20:18:41.810Z,2.75
2023-08-26T20:21:10.025Z,2.78
2023-08-26T20:23:38.074Z,3.22
2023-08-26T20:26:06.583Z,2.85
2023-08-26T20:28:36.063Z,2.85
2023-08-26T20:31:05.195Z,2.50
2023-08-26T20:33:34.064Z,2.63
2023-08-26T20:36:03.962Z,2.47
2023-08-26T20:38:32.604Z,2.30
2023-08-26T20:41:01.453Z,2.65
2023-08-26T20:43:30.253Z,2.55
2023-08-26T20:46:00.818Z,2.72
2023-08-26T20:48:29.536Z,2.70
2023-08-26T20:50:58.282Z,2.30
2023-08-26T20:53:26.847Z,2.10
2023-08-26T20:55:55.638Z,2.88
2023-08-26T20:58:24.041Z,2.60
2023-08-26T21:00:54.114Z,2.80
2023-08-26T21:03:23.743Z,2.92
2023-08-26T21:05:51.803Z,2.80
2023-08-26T21:08:20.146Z,3.10
2023-08-26T21:10:53.108Z,2.90
2023-08-26T21:13:21.181Z,3.00
2023-08-26T21:15:49.629Z,3.55
2023-08-26T21:18:17.849Z,3.10
2023-08-26T21:20:51.361Z,3.30
2023-08-26T21:23:20.358Z,3.38
2023-08-26T21:25:51.018Z,2.83
2023-08-26T21:28:19.133Z,3.22
2023-08-26T21:30:47.296Z,3.05
2023-08-26T21:33:15.344Z,3.17
2023-08-26T21:35:43.432Z,3.60
2023-08-26T21:38:12.926Z,3.28
2023-08-26T21:40:40.981Z,3.85
2023-08-26T21:43:12.266Z,4.22
2023-08-26T21:45:40.669Z,3.22
2023-08-26T21:48:09.168Z,3.67
2023-08-26T21:50:41.054Z,3.33
2023-08-26T21:53:09.292Z,3.55
2023-08-26T21:55:38.796Z,3.22
2023-08-26T21:58:07.837Z,2.95
2023-08-26T22:00:38.096Z,3.00
2023-08-26T22:03:06.466Z,2.83
2023-08-26T22:05:37.387Z,2.83
2023-08-26T22:08:06.283Z,3.10
2023-08-26T22:10:35.919Z,3.10
2023-08-26T22:13:06.618Z,3.00
2023-08-26T22:15:39.247Z,3.03
2023-08-26T22:18:08.062Z,3.28
2023-08-26T22:20:37.737Z,3.50
2023-08-26T22:23:06.321Z,3.45
2023-08-26T22:25:34.447Z,3.22
2023-08-26T22:28:02.853Z,2.95
2023-08-26T22:30:32.275Z,3.28
2023-08-26T22:33:01.392Z,3.40
2023-08-26T22:35:29.706Z,3.03
2023-08-26T22:37:57.773Z,3.10
2023-08-26T22:40:25.910Z,3.30
2023-08-26T22:42:53.980Z,3.10
2023-08-26T22:45:21.979Z,3.33
2023-08-26T22:47:51.456Z,3.53
2023-08-26T22:50:19.645Z,3.50
2023-08-26T22:52:47.669Z,3.47
2023-08-26T22:55:15.928Z,3.28
2023-08-26T22:57:44.009Z,3.72
2023-08-26T23:00:12.704Z,4.05
2023-08-26T23:02:41.096Z,3.55
2023-08-26T23:05:10.791Z,4.45
2023-08-26T23:07:39.167Z,4.55
2023-08-26T23:10:08.264Z,4.82
2023-08-26T23:12:36.381Z,4.05
2023-08-26T23:15:04.601Z,4.82
2023-08-26T23:17:32.749Z,6.28
2023-08-26T23:20:00.794Z,5.07
2023-08-26T23:22:30.284Z,5.40
2023-08-26T23:24:58.472Z,5.95
2023-08-26T23:27:26.566Z,6.20
2023-08-26T23:29:54.754Z,5.60
2023-08-26T23:32:23.295Z,5.80
2023-08-26T23:34:51.396Z,5.88
2023-08-26T23:37:19.439Z,6.18
2023-08-26T23:39:49.000Z,5.50
2023-08-26T23:42:17.001Z,6.00
2023-08-26T23:44:45.031Z,5.10
2023-08-26T23:47:13.088Z,5.65
2023-08-26T23:49:41.122Z,6.40
2023-08-26T23:52:09.111Z,5.40
2023-08-26T23:54:37.191Z,5.63
2023-08-26T23:57:07.083Z,5.88
2023-08-26T23:59:36.359Z,5.57
